Time;durP1;ratioP1;P1;durP2;ratioP2;P2;SDS_P1;SDS_P2;PMS_P1;PMS_P2;Temp;Humidity;BMP_temperature;BMP_pressure;BME280_temperature;BME280_humidity;BME280_pressure;Samples;Min_cycle;Max_cycle;Signal;HPM_P1;HPM_P2
2023/12/26 00:00:50;;;;;;;1.70;1.60;;;8.20;72.30;;;;;;5134507;27;20392;-78
2023/12/26 00:03:16;;;;;;;1.80;1.70;;;8.20;72.20;;;;;;5115600;28;20494;-76
2023/12/26 00:05:42;;;;;;;1.80;1.70;;;8.20;72.20;;;;;;5115126;27;20027;-77
2023/12/26 00:08:08;;;;;;;1.95;1.75;;;8.20;72.20;;;;;;5114500;28;20346;-76
2023/12/26 00:10:34;;;;;;;1.70;1.60;;;8.20;72.20;;;;;;5133847;27;20083;-76
2023/12/26 00:13:01;;;;;;;2.03;1.83;;;8.20;72.20;;;;;;5137313;27;20127;-76
2023/12/26 00:15:27;;;;;;;1.70;1.60;;;8.20;72.10;;;;;;5118778;27;20107;-77
2023/12/26 00:17:53;;;;;;;2.42;1.80;;;8.20;72.10;;;;;;5123030;27;20457;-77
2023/12/26 00:20:19;;;;;;;1.92;1.80;;;8.20;72.00;;;;;;5126419;27;20035;-76
2023/12/26 00:22:45;;;;;;;2.15;2.00;;;8.20;72.00;;;;;;5117400;27;20084;-78
2023/12/26 00:25:11;;;;;;;1.70;1.60;;;8.20;72.00;;;;;;5118833;27;20019;-77
2023/12/26 00:27:39;;;;;;;1.77;1.67;;;8.20;71.90;;;;;;5100276;28;20076;-77
2023/12/26 00:30:07;;;;;;;1.80;1.70;;;8.20;71.80;;;;;;5129615;27;20046;-77
2023/12/26 00:32:34;;;;;;;1.70;1.60;;;8.20;71.70;;;;;;5117102;28;20492;-78
2023/12/26 00:34:59;;;;;;;1.83;1.70;;;8.20;71.60;;;;;;5116767;28;20019;-78
2023/12/26 00:37:25;;;;;;;2.47;1.77;;;8.20;71.50;;;;;;5116910;27;20072;-76
2023/12/26 00:39:52;;;;;;;2.25;2.08;;;8.20;71.50;;;;;;5115241;27;20043;-77
2023/12/26 00:42:19;;;;;;;1.60;1.50;;;8.20;71.40;;;;;;5136487;27;20122;-77
2023/12/26 00:44:45;;;;;;;1.70;1.60;;;8.20;71.40;;;;;;5118796;27;20130;-77
2023/12/26 00:47:11;;;;;;;1.83;1.65;;;8.20;71.40;;;;;;5125592;27;20410;-77
2023/12/26 00:49:36;;;;;;;1.60;1.50;;;8.20;71.40;;;;;;5116684;27;20377;-79
2023/12/26 00:52:02;;;;;;;1.65;1.55;;;8.20;71.40;;;;;;5116890;27;20118;-77
2023/12/26 00:54:28;;;;;;;3.05;1.80;;;8.20;71.30;;;;;;5118891;27;20400;-78
2023/12/26 00:56:54;;;;;;;2.17;1.75;;;8.20;71.30;;;;;;5129660;27;20023;-78
2023/12/26 00:59:20;;;;;;;1.80;1.70;;;8.20;71.20;;;;;;5098461;28;20051;-77
2023/12/26 01:01:46;;;;;;;1.70;1.60;;;8.20;71.20;;;;;;5105071;28;20044;-77
2023/12/26 01:04:11;;;;;;;1.75;1.65;;;8.20;71.10;;;;;;5115216;28;20043;-77
2023/12/26 01:06:37;;;;;;;1.70;1.60;;;8.20;71.00;;;;;;5114720;28;20116;-76
2023/12/26 01:09:03;;;;;;;1.48;1.38;;;8.20;71.00;;;;;;5116102;28;20028;-77
2023/12/26 01:11:29;;;;;;;1.70;1.60;;;8.20;70.90;;;;;;5115707;28;20031;-77
2023/12/26 01:13:54;;;;;;;2.25;1.70;;;8.20;70.90;;;;;;5097545;28;20053;-79
2023/12/26 01:16:25;;;;;;;1.70;1.60;;;8.20;70.80;;;;;;5095080;28;20028;-78
2023/12/26 01:18:51;;;;;;;1.80;1.70;;;8.20;70.80;;;;;;5111013;28;20020;-78
2023/12/26 01:21:17;;;;;;;1.70;1.60;;;8.10;70.70;;;;;;5100523;28;20450;-78
2023/12/26 01:23:42;;;;;;;3.80;1.80;;;8.10;70.60;;;;;;5115374;28;20477;-77
2023/12/26 01:26:09;;;;;;;2.85;1.80;;;8.10;70.50;;;;;;5114082;28;20433;-76
2023/12/26 01:28:35;;;;;;;3.55;1.60;;;8.10;70.50;;;;;;5093336;28;20028;-76
2023/12/26 01:31:00;;;;;;;1.70;1.60;;;8.20;70.50;;;;;;5112923;28;20034;-76
2023/12/26 01:33:26;;;;;;;1.75;1.65;;;8.10;70.40;;;;;;5100591;27;20553;-77
2023/12/26 01:35:52;;;;;;;2.25;1.90;;;8.10;70.30;;;;;;5096138;28;20149;-76
2023/12/26 01:38:18;;;;;;;2.15;1.70;;;8.10;70.20;;;;;;5113743;28;20474;-77
2023/12/26 01:40:43;;;;;;;1.88;1.55;;;8.10;70.20;;;;;;5114449;28;20426;-76
2023/12/26 01:43:09;;;;;;;3.40;1.88;;;8.10;70.10;;;;;;5093990;28;20036;-77
2023/12/26 01:45:35;;;;;;;1.92;1.73;;;8.10;70.10;;;;;;5102282;28;20115;-76
2023/12/26 01:48:03;;;;;;;1.65;1.55;;;8.10;70.70;;;;;;5113756;28;20165;-77
2023/12/26 01:50:30;;;;;;;1.77;1.67;;;8.10;70.10;;;;;;5113866;28;20031;-77
2023/12/26 01:52:56;;;;;;;2.58;1.70;;;8.10;70.00;;;;;;5093901;28;20043;-77
2023/12/26 01:55:22;;;;;;;2.58;1.85;;;8.10;70.00;;;;;;5095468;28;20028;-76
2023/12/26 01:57:49;;;;;;;2.30;1.73;;;8.10;70.00;;;;;;5095895;28;20026;-76
2023/12/26 02:00:15;;;;;;;1.75;1.65;;;8.10;70.00;;;;;;5130489;27;20043;-77
2023/12/26 02:02:43;;;;;;;2.78;1.70;;;8.10;70.30;;;;;;5099781;28;20040;-77
2023/12/26 02:05:10;;;;;;;1.77;1.67;;;8.10;70.00;;;;;;5114510;27;20027;-77
2023/12/26 02:07:36;;;;;;;2.38;1.73;;;8.10;69.90;;;;;;5105671;27;20051;-77
2023/12/26 02:10:04;;;;;;;1.92;1.83;;;8.10;69.90;;;;;;5135576;27;20500;-76
2023/12/26 02:12:30;;;;;;;1.98;1.60;;;8.10;69.90;;;;;;5101558;28;20035;-76
2023/12/26 02:14:57;;;;;;;2.33;1.52;;;8.10;69.90;;;;;;5115593;27;20080;-76
2023/12/26 02:17:25;;;;;;;1.70;1.60;;;8.10;69.90;;;;;;5126558;27;20038;-76
2023/12/26 02:19:51;;;;;;;1.63;1.52;;;8.10;69.90;;;;;;5114761;28;20029;-77
2023/12/26 02:22:17;;;;;;;1.80;1.70;;;8.10;69.90;;;;;;5116241;27;20474;-76
2023/12/26 02:24:44;;;;;;;1.98;1.73;;;8.10;69.90;;;;;;5130773;27;20027;-77
2023/12/26 02:27:24;;;;;;;1.77;1.67;;;8.10;69.90;;;;;;5116354;27;20480;-78
2023/12/26 02:29:52;;;;;;;1.65;1.55;;;8.00;69.80;;;;;;5114947;27;20038;-76
2023/12/26 02:32:21;;;;;;;1.73;1.63;;;8.10;69.90;;;;;;5128464;27;20027;-77
2023/12/26 02:34:48;;;;;;;1.60;1.50;;;8.10;69.90;;;;;;5108594;27;20027;-77
2023/12/26 02:37:14;;;;;;;2.13;1.60;;;8.10;69.90;;;;;;5133436;27;20019;-76
2023/12/26 02:39:43;;;;;;;1.98;1.73;;;8.00;69.80;;;;;;5123493;27;20105;-77
2023/12/26 02:42:10;;;;;;;2.28;1.70;;;8.10;69.80;;;;;;5116051;27;20039;-76
2023/12/26 02:44:35;;;;;;;1.90;1.80;;;8.10;69.80;;;;;;5134736;27;20156;-77
2023/12/26 02:47:01;;;;;;;2.67;2.00;;;8.10;69.80;;;;;;5114932;28;20484;-76
2023/12/26 02:49:27;;;;;;;1.75;1.65;;;8.00;69.80;;;;;;5114395;28;20405;-76
2023/12/26 02:51:53;;;;;;;1.60;1.50;;;8.00;69.80;;;;;;5114506;27;20027;-76
2023/12/26 02:54:18;;;;;;;1.98;1.73;;;8.00;69.90;;;;;;5134832;27;20372;-77
2023/12/26 02:56:46;;;;;;;2.05;1.85;;;8.00;69.80;;;;;;5117322;27;20027;-77
2023/12/26 02:59:12;;;;;;;1.80;1.70;;;8.00;69.80;;;;;;5129284;27;20127;-77
2023/12/26 03:01:37;;;;;;;2.00;1.80;;;8.10;69.90;;;;;;5104294;28;20118;-76
2023/12/26 03:04:03;;;;;;;1.77;1.65;;;8.10;70.00;;;;;;5108742;28;20027;-76
2023/12/26 03:06:29;;;;;;;1.77;1.65;;;8.10;70.00;;;;;;5106468;28;20047;-77
2023/12/26 03:08:55;;;;;;;1.70;1.60;;;8.10;70.00;;;;;;5132782;28;20033;-78
2023/12/26 03:11:20;;;;;;;1.77;1.67;;;8.10;70.00;;;;;;5098332;28;20118;-77
2023/12/26 03:13:46;;;;;;;2.55;1.60;;;8.00;69.90;;;;;;5129237;27;20027;-76
2023/12/26 03:16:12;;;;;;;1.80;1.70;;;8.10;70.00;;;;;;5114351;28;20024;-76
2023/12/26 03:18:38;;;;;;;1.58;1.48;;;8.00;70.00;;;;;;5095743;28;20031;-76
2023/12/26 03:21:03;;;;;;;2.08;1.75;;;8.10;70.10;;;;;;5098461;28;20046;-77
2023/12/26 03:23:29;;;;;;;2.95;1.77;;;8.00;70.00;;;;;;5112429;28;20031;-77
2023/12/26 03:25:55;;;;;;;2.45;1.65;;;8.10;70.00;;;;;;5132000;28;20019;-77
2023/12/26 03:28:21;;;;;;;1.95;1.80;;;8.00;69.90;;;;;;5095844;28;20024;-77
2023/12/26 03:30:46;;;;;;;2.13;1.80;;;8.10;69.90;;;;;;5115301;28;20028;-77
2023/12/26 03:33:12;;;;;;;1.60;1.50;;;8.00;69.80;;;;;;5126650;28;20508;-77
2023/12/26 03:35:38;;;;;;;1.77;1.67;;;8.10;69.90;;;;;;5118240;28;20032;-77
2023/12/26 03:38:04;;;;;;;2.95;1.90;;;8.00;69.70;;;;;;5114544;27;20027;-77
2023/12/26 03:40:29;;;;;;;1.98;1.80;;;8.00;69.70;;;;;;5129868;28;20102;-77
2023/12/26 03:42:55;;;;;;;1.83;1.63;;;8.00;69.70;;;;;;5118491;28;20046;-76
2023/12/26 03:45:21;;;;;;;2.72;1.90;;;8.00;69.80;;;;;;5114344;28;20032;-77
2023/12/26 03:47:47;;;;;;;2.80;1.95;;;8.00;69.80;;;;;;5117012;28;20046;-75
2023/12/26 03:50:13;;;;;;;2.63;1.88;;;8.00;69.80;;;;;;5099354;28;20023;-76
2023/12/26 03:52:40;;;;;;;1.92;1.83;;;8.00;69.90;;;;;;5125071;27;20034;-76
2023/12/26 03:55:06;;;;;;;2.63;1.75;;;8.00;69.90;;;;;;5138157;27;20398;-76
2023/12/26 03:57:32;;;;;;;2.42;1.70;;;8.00;69.90;;;;;;5126770;27;20043;-76
2023/12/26 03:59:58;;;;;;;2.28;1.73;;;8.00;69.80;;;;;;5099067;28;20048;-76
2023/12/26 04:02:23;;;;;;;1.73;1.63;;;8.00;69.70;;;;;;5122568;27;20066;-77
2023/12/26 04:04:49;;;;;;;2.50;1.70;;;8.00;69.60;;;;;;5124728;27;20465;-76
2023/12/26 04:07:15;;;;;;;1.67;1.58;;;8.00;69.60;;;;;;5117092;27;20035;-79
2023/12/26 04:09:41;;;;;;;3.08;1.70;;;7.90;69.50;;;;;;5121139;27;20024;-76
2023/12/26 04:12:07;;;;;;;1.90;1.80;;;7.90;69.50;;;;;;5121198;27;20035;-76
2023/12/26 04:14:32;;;;;;;2.00;1.80;;;7.90;69.40;;;;;;5137630;27;20041;-76
2023/12/26 04:16:58;;;;;;;2.38;1.70;;;8.00;69.40;;;;;;5124612;27;20031;-77
2023/12/26 04:19:25;;;;;;;1.88;1.77;;;8.00;69.30;;;;;;5117127;28;20051;-77
2023/12/26 04:21:51;;;;;;;2.55;1.65;;;7.90;69.30;;;;;;5117658;27;20023;-77
2023/12/26 04:24:17;;;;;;;4.03;1.80;;;7.90;69.20;;;;;;5133369;27;20026;-77
2023/12/26 04:26:42;;;;;;;2.25;1.70;;;7.90;69.20;;;;;;5121642;27;20058;-76
2023/12/26 04:29:08;;;;;;;1.90;1.80;;;7.90;69.10;;;;;;5122959;27;20024;-76
2023/12/26 04:31:34;;;;;;;1.92;1.80;;;7.90;69.10;;;;;;5134007;27;20031;-76
2023/12/26 04:34:00;;;;;;;2.13;1.70;;;7.90;69.00;;;;;;5124530;27;20031;-76
2023/12/26 04:36:25;;;;;;;1.90;1.80;;;7.90;68.90;;;;;;5099653;27;20126;-76
2023/12/26 04:38:51;;;;;;;2.20;1.90;;;7.90;68.90;;;;;;5116446;28;20031;-75
2023/12/26 04:41:17;;;;;;;2.17;1.90;;;7.90;68.80;;;;;;5130087;27;20375;-77
2023/12/26 04:43:43;;;;;;;1.65;1.55;;;7.90;68.70;;;;;;5128239;27;20050;-76
2023/12/26 04:46:16;;;;;;;2.40;1.70;;;7.90;68.60;;;;;;5116641;27;20027;-76
2023/12/26 04:48:42;;;;;;;2.35;1.80;;;7.90;68.50;;;;;;5099528;28;20054;-77
2023/12/26 04:51:08;;;;;;;2.28;2.08;;;7.90;68.60;;;;;;5117427;27;20453;-76
2023/12/26 04:53:33;;;;;;;2.70;2.20;;;7.90;68.50;;;;;;5111918;27;20030;-76
2023/12/26 04:55:59;;;;;;;2.20;1.80;;;7.90;68.50;;;;;;5114457;27;20034;-76
2023/12/26 04:58:25;;;;;;;2.00;1.67;;;7.90;68.60;;;;;;5101525;28;20496;-76
2023/12/26 05:00:51;;;;;;;2.90;1.80;;;7.90;68.50;;;;;;5116338;27;20363;-78
2023/12/26 05:03:16;;;;;;;2.38;1.90;;;7.90;68.40;;;;;;5133726;27;20469;-76
2023/12/26 05:05:42;;;;;;;2.72;2.13;;;7.90;68.40;;;;;;5121469;27;20043;-78
2023/12/26 05:08:08;;;;;;;1.95;1.80;;;7.90;68.30;;;;;;5125150;27;20121;-78
2023/12/26 05:10:34;;;;;;;2.38;1.83;;;7.90;68.30;;;;;;5116290;28;20107;-77
2023/12/26 05:13:00;;;;;;;2.70;1.90;;;7.90;68.30;;;;;;5116372;27;20031;-77
2023/12/26 05:15:26;;;;;;;2.85;1.92;;;7.90;68.20;;;;;;5126696;27;20037;-77
2023/12/26 05:17:52;;;;;;;2.42;1.80;;;7.90;68.20;;;;;;5116629;27;20039;-78
2023/12/26 05:20:18;;;;;;;3.08;1.95;;;8.00;68.30;;;;;;5121692;27;20074;-77
2023/12/26 05:22:43;;;;;;;2.63;1.92;;;7.90;68.30;;;;;;5100553;27;20056;-75
2023/12/26 05:25:10;;;;;;;2.67;1.70;;;7.90;68.20;;;;;;5121933;27;20066;-79
2023/12/26 05:27:36;;;;;;;2.38;2.03;;;7.90;68.30;;;;;;5098217;28;20023;-81
2023/12/26 05:30:03;;;;;;;2.20;2.00;;;7.90;68.30;;;;;;5095748;28;20035;-79
2023/12/26 05:32:32;;;;;;;1.95;1.80;;;7.90;68.40;;;;;;5119478;27;20374;-79
2023/12/26 05:35:01;;;;;;;2.63;1.95;;;7.90;68.40;;;;;;5105642;27;20396;-83
2023/12/26 05:37:27;;;;;;;2.20;1.88;;;7.90;68.40;;;;;;5104222;28;20066;-84
2023/12/26 05:39:52;;;;;;;2.20;2.00;;;7.90;68.40;;;;;;5123763;28;20046;-74
2023/12/26 05:42:18;;;;;;;3.22;2.00;;;8.00;68.40;;;;;;5116827;27;20040;-75
2023/12/26 05:44:44;;;;;;;2.90;2.00;;;7.90;68.40;;;;;;5108343;28;20024;-81
2023/12/26 05:47:10;;;;;;;1.88;1.70;;;7.90;68.50;;;;;;5101058;28;20028;-79
2023/12/26 05:49:36;;;;;;;2.17;1.98;;;8.00;69.00;;;;;;5097273;28;20028;-82
2023/12/26 05:52:02;;;;;;;2.47;1.80;;;8.00;69.00;;;;;;5101280;28;20287;-72
2023/12/26 05:54:27;;;;;;;2.30;1.90;;;8.00;68.90;;;;;;5114861;28;20020;-72
2023/12/26 05:56:53;;;;;;;2.28;2.08;;;8.00;68.90;;;;;;5098730;27;20068;-75
2023/12/26 05:59:19;;;;;;;1.77;1.67;;;8.00;68.80;;;;;;5097067;28;20047;-77
2023/12/26 06:01:46;;;;;;;2.55;2.13;;;8.00;68.70;;;;;;5119328;27;20019;-76
2023/12/26 06:04:12;;;;;;;4.18;2.33;;;8.00;68.50;;;;;;5110418;27;20057;-77
2023/12/26 06:06:38;;;;;;;2.65;2.10;;;8.00;68.50;;;;;;5103160;28;20024;-79
2023/12/26 06:09:05;;;;;;;2.80;2.00;;;8.00;68.40;;;;;;5112478;27;20112;-77
2023/12/26 06:11:31;;;;;;;2.67;1.90;;;8.00;68.30;;;;;;5120413;27;20085;-75
2023/12/26 06:13:57;;;;;;;2.05;1.90;;;8.00;68.30;;;;;;5128514;27;20031;-77
2023/12/26 06:16:23;;;;;;;3.60;2.30;;;8.00;68.20;;;;;;5114924;27;20381;-77
2023/12/26 06:18:48;;;;;;;2.10;1.90;;;8.00;68.10;;;;;;5116268;27;20461;-76
2023/12/26 06:21:16;;;;;;;1.98;1.80;;;8.00;68.10;;;;;;5116639;27;20465;-79
2023/12/26 06:23:42;;;;;;;3.40;2.15;;;8.00;68.00;;;;;;5134919;27;20109;-76
2023/12/26 06:26:08;;;;;;;2.13;1.92;;;8.00;68.00;;;;;;5116896;27;20027;-76
2023/12/26 06:28:34;;;;;;;3.05;2.35;;;8.00;68.00;;;;;;5134963;27;20132;-76
2023/12/26 06:31:00;;;;;;;4.03;2.35;;;8.00;68.00;;;;;;5116616;27;20032;-77
2023/12/26 06:33:26;;;;;;;2.13;1.92;;;8.00;68.00;;;;;;5113283;28;20027;-77
2023/12/26 06:35:52;;;;;;;3.10;2.05;;;8.10;68.00;;;;;;5115799;27;20034;-77
2023/12/26 06:38:17;;;;;;;2.95;2.10;;;8.10;68.00;;;;;;5112342;27;20024;-78
2023/12/26 06:40:43;;;;;;;3.15;2.05;;;8.10;68.00;;;;;;5116495;27;20030;-79
2023/12/26 06:43:14;;;;;;;2.38;2.10;;;8.10;68.00;;;;;;5135200;27;20069;-80
2023/12/26 06:45:39;;;;;;;2.88;1.95;;;8.20;68.00;;;;;;5112944;28;20024;-78
2023/12/26 06:48:05;;;;;;;2.22;1.90;;;8.20;68.00;;;;;;5114031;28;20030;-78
2023/12/26 06:50:31;;;;;;;2.42;2.17;;;8.20;68.00;;;;;;5113693;28;20031;-75
2023/12/26 06:52:57;;;;;;;2.33;1.98;;;8.20;68.00;;;;;;5132333;27;20426;-77
2023/12/26 06:55:23;;;;;;;2.40;1.88;;;8.20;68.10;;;;;;5117056;27;20456;-77
2023/12/26 06:57:49;;;;;;;2.97;1.83;;;8.30;68.10;;;;;;5134013;27;20096;-77
2023/12/26 07:00:17;;;;;;;3.40;2.15;;;8.30;68.10;;;;;;5116115;27;20382;-78
2023/12/26 07:02:43;;;;;;;2.78;2.00;;;8.30;68.20;;;;;;5113379;28;20531;-78
2023/12/26 07:05:09;;;;;;;2.70;1.98;;;8.30;68.20;;;;;;5116637;28;20031;-78
2023/12/26 07:07:35;;;;;;;2.63;1.92;;;8.30;68.20;;;;;;5133945;28;20035;-77
2023/12/26 07:10:01;;;;;;;2.50;1.95;;;8.30;68.20;;;;;;5114136;28;20023;-79
2023/12/26 07:12:26;;;;;;;3.00;2.20;;;8.40;68.20;;;;;;5114470;28;20038;-78
2023/12/26 07:14:52;;;;;;;1.85;1.75;;;8.40;68.20;;;;;;5112773;28;20045;-76
2023/12/26 07:17:18;;;;;;;2.10;1.77;;;8.40;68.20;;;;;;5133712;28;20027;-75
2023/12/26 07:19:44;;;;;;;2.25;1.90;;;8.40;68.20;;;;;;5112865;28;20058;-74
2023/12/26 07:22:09;;;;;;;3.30;2.10;;;8.40;68.10;;;;;;5116774;28;20408;-75
2023/12/26 07:24:38;;;;;;;1.70;1.60;;;8.30;68.70;;;;;;5117116;28;20039;-75
2023/12/26 07:27:04;;;;;;;2.42;1.80;;;8.40;68.20;;;;;;5117046;28;20461;-75
2023/12/26 07:29:30;;;;;;;2.13;1.77;;;8.40;68.20;;;;;;5118281;27;20039;-75
2023/12/26 07:31:56;;;;;;;1.85;1.75;;;8.40;68.10;;;;;;5116498;28;20107;-74
2023/12/26 07:34:21;;;;;;;1.77;1.67;;;8.40;68.00;;;;;;5118198;28;20363;-74
2023/12/26 07:36:47;;;;;;;2.60;2.08;;;8.40;68.00;;;;;;5118088;28;20102;-74
2023/12/26 07:39:13;;;;;;;2.10;1.90;;;8.40;68.00;;;;;;5115940;27;20023;-75
2023/12/26 07:41:39;;;;;;;2.30;1.90;;;8.40;68.10;;;;;;5138075;27;20058;-74
2023/12/26 07:44:05;;;;;;;2.00;1.70;;;8.40;68.00;;;;;;5116306;28;20474;-73
2023/12/26 07:46:31;;;;;;;2.63;1.90;;;8.40;68.00;;;;;;5120765;27;20030;-75
2023/12/26 07:48:57;;;;;;;1.75;1.65;;;8.40;68.00;;;;;;5138838;27;20074;-75
2023/12/26 07:51:24;;;;;;;2.50;1.90;;;8.40;67.90;;;;;;5120060;27;20066;-77
2023/12/26 07:53:51;;;;;;;2.00;1.80;;;8.40;67.90;;;;;;5115434;28;20167;-75
2023/12/26 07:56:18;;;;;;;1.73;1.63;;;8.40;67.80;;;;;;5115657;28;20039;-76
2023/12/26 07:58:44;;;;;;;1.83;1.60;;;8.50;67.80;;;;;;5097644;28;20035;-75
2023/12/26 08:01:10;;;;;;;1.77;1.67;;;8.50;67.70;;;;;;5097647;28;20023;-75
2023/12/26 08:03:36;;;;;;;1.98;1.75;;;8.50;67.70;;;;;;5094274;28;20051;-75
2023/12/26 08:06:01;;;;;;;1.95;1.80;;;8.50;67.60;;;;;;5100237;28;20051;-74
2023/12/26 08:08:48;;;;;;;2.92;1.80;;;8.50;67.50;;;;;;5098236;28;20443;-77
2023/12/26 08:11:13;;;;;;;2.92;1.70;;;8.60;67.40;;;;;;5114817;28;20055;-74
2023/12/26 08:13:39;;;;;;;1.80;1.70;;;8.60;67.20;;;;;;5097593;28;20031;-74
2023/12/26 08:16:05;;;;;;;2.08;1.80;;;8.60;67.20;;;;;;5097770;28;20118;-76
2023/12/26 08:18:32;;;;;;;2.13;1.73;;;8.60;67.10;;;;;;5115099;28;20101;-74
2023/12/26 08:20:58;;;;;;;2.17;1.83;;;8.60;67.00;;;;;;5098200;28;20028;-74
2023/12/26 08:23:24;;;;;;;1.95;1.75;;;8.60;66.90;;;;;;5097735;28;20055;-74
2023/12/26 08:25:50;;;;;;;4.93;1.90;;;8.60;66.80;;;;;;5114203;28;20031;-74
2023/12/26 08:28:16;;;;;;;1.95;1.73;;;8.60;66.80;;;;;;5117423;28;20028;-75
2023/12/26 08:30:41;;;;;;;2.60;1.85;;;8.70;66.80;;;;;;5117179;28;20055;-73
2023/12/26 08:33:07;;;;;;;1.88;1.77;;;8.70;66.70;;;;;;5116118;28;20032;-76
2023/12/26 08:35:36;;;;;;;2.90;1.90;;;8.70;66.60;;;;;;5115338;28;20034;-74
2023/12/26 08:38:02;;;;;;;2.95;1.75;;;8.70;66.50;;;;;;5115669;28;20381;-74
2023/12/26 08:40:28;;;;;;;2.13;1.88;;;8.70;66.40;;;;;;5116009;28;20498;-79
2023/12/26 08:42:54;;;;;;;1.92;1.80;;;8.70;66.30;;;;;;5115528;28;20063;-72
2023/12/26 08:45:19;;;;;;;1.90;1.67;;;8.70;66.30;;;;;;5115574;28;20028;-73
2023/12/26 08:47:45;;;;;;;1.60;1.50;;;8.70;66.20;;;;;;5113463;28;20023;-74
2023/12/26 08:50:11;;;;;;;1.70;1.60;;;8.70;66.20;;;;;;5115319;28;20039;-75
2023/12/26 08:52:37;;;;;;;1.55;1.40;;;8.70;66.20;;;;;;5113728;28;20106;-75
2023/12/26 08:55:23;;;;;;;1.60;1.50;;;8.80;66.20;;;;;;5110304;27;21109;-77
2023/12/26 08:57:52;;;;;;;2.20;1.60;;;8.80;66.10;;;;;;5125698;27;20529;-78
2023/12/26 09:00:19;;;;;;;1.95;1.80;;;8.80;66.00;;;;;;5114864;28;20052;-74
2023/12/26 09:02:45;;;;;;;1.98;1.60;;;8.80;65.90;;;;;;5114977;28;20423;-75
2023/12/26 09:05:11;;;;;;;2.10;1.70;;;8.90;65.90;;;;;;5113608;27;20036;-75
2023/12/26 09:07:38;;;;;;;2.17;1.73;;;8.80;65.80;;;;;;5103839;27;20031;-75
2023/12/26 09:10:05;;;;;;;2.83;2.30;;;8.90;65.70;;;;;;5118246;27;20118;-74
2023/12/26 09:12:31;;;;;;;2.22;1.88;;;8.90;65.70;;;;;;5116472;27;20023;-75
2023/12/26 09:14:58;;;;;;;2.70;1.67;;;8.90;65.60;;;;;;5128676;27;20481;-76
2023/12/26 09:17:42;;;;;;;1.85;1.75;;;8.90;65.50;;;;;;5117002;27;20027;-79
2023/12/26 09:20:09;;;;;;;1.80;1.70;;;8.90;65.50;;;;;;5128903;27;20554;-76
2023/12/26 09:22:44;;;;;;;1.95;1.65;;;8.90;65.40;;;;;;5117623;27;20466;-79
2023/12/26 09:25:10;;;;;;;1.63;1.50;;;8.90;65.40;;;;;;5123576;27;20080;-76
2023/12/26 09:27:41;;;;;;;1.75;1.65;;;9.00;65.40;;;;;;5104844;28;20457;-77
2023/12/26 09:30:18;;;;;;;1.95;1.70;;;9.00;65.40;;;;;;5108161;28;20028;-77
2023/12/26 09:32:43;;;;;;;2.55;2.00;;;9.00;65.30;;;;;;5114391;28;20023;-75
2023/12/26 09:35:09;;;;;;;1.50;1.40;;;9.10;65.30;;;;;;5110117;27;20549;-76
2023/12/26 09:37:38;;;;;;;2.67;1.90;;;9.10;65.30;;;;;;5118173;27;20558;-74
2023/12/26 09:40:06;;;;;;;2.38;1.70;;;9.00;65.30;;;;;;5134117;27;20046;-75
2023/12/26 09:42:32;;;;;;;2.15;1.85;;;9.10;65.40;;;;;;5119411;27;20051;-74
2023/12/26 09:44:59;;;;;;;3.10;1.80;;;9.10;65.40;;;;;;5113823;28;20028;-73
2023/12/26 09:47:25;;;;;;;1.83;1.73;;;9.10;65.40;;;;;;5114323;28;20419;-75
2023/12/26 09:49:54;;;;;;;2.65;1.80;;;9.10;65.50;;;;;;5122404;27;20011;-74
2023/12/26 09:52:21;;;;;;;2.20;1.70;;;9.10;65.50;;;;;;5126254;27;20028;-74
2023/12/26 09:54:49;;;;;;;1.70;1.60;;;9.10;65.50;;;;;;5115482;27;20145;-75
2023/12/26 09:57:15;;;;;;;2.15;1.60;;;9.10;65.50;;;;;;5112632;27;20488;-75
2023/12/26 09:59:43;;;;;;;1.95;1.75;;;9.20;65.60;;;;;;5114877;28;20129;-76
2023/12/26 10:02:12;;;;;;;1.70;1.60;;;9.20;65.50;;;;;;5115064;28;20111;-75
2023/12/26 10:04:39;;;;;;;2.22;1.80;;;9.20;65.50;;;;;;5115179;28;20051;-76
2023/12/26 10:07:04;;;;;;;2.00;1.80;;;9.20;65.50;;;;;;5125304;27;20483;-74
2023/12/26 10:09:30;;;;;;;2.10;1.67;;;9.20;65.40;;;;;;5130754;27;20019;-76
2023/12/26 10:11:59;;;;;;;1.65;1.55;;;9.20;65.40;;;;;;5123686;27;20027;-75
2023/12/26 10:14:31;;;;;;;2.25;1.90;;;9.20;65.30;;;;;;5113737;28;20089;-76
2023/12/26 10:16:58;;;;;;;1.67;1.58;;;9.20;65.30;;;;;;5116870;27;20394;-74
2023/12/26 10:19:24;;;;;;;1.70;1.60;;;9.30;65.30;;;;;;5113087;28;20034;-75
2023/12/26 10:21:52;;;;;;;2.08;1.77;;;9.30;65.20;;;;;;5114805;28;20448;-74
2023/12/26 10:24:21;;;;;;;1.70;1.60;;;9.30;65.20;;;;;;5116345;27;20055;-75
2023/12/26 10:26:47;;;;;;;1.60;1.50;;;9.30;65.10;;;;;;5116929;27;20019;-75
2023/12/26 10:29:15;;;;;;;2.25;1.67;;;9.30;65.10;;;;;;5117057;27;20050;-73
2023/12/26 10:31:41;;;;;;;1.70;1.60;;;9.30;65.00;;;;;;5123169;27;20031;-76
2023/12/26 10:34:19;;;;;;;2.88;1.83;;;9.30;65.00;;;;;;5113090;28;20076;-75
2023/12/26 10:36:48;;;;;;;1.83;1.73;;;9.40;65.10;;;;;;5113603;28;20019;-75
2023/12/26 10:39:16;;;;;;;2.25;1.88;;;9.30;65.00;;;;;;5112915;28;20032;-74
2023/12/26 10:41:53;;;;;;;2.08;1.73;;;9.40;65.10;;;;;;5116585;27;20035;-74
2023/12/26 10:44:19;;;;;;;1.80;1.70;;;9.40;65.10;;;;;;5104408;27;20027;-76
2023/12/26 10:46:47;;;;;;;1.70;1.60;;;9.40;65.10;;;;;;5109171;27;20027;-74
2023/12/26 10:49:21;;;;;;;1.98;1.55;;;9.40;65.10;;;;;;5114597;27;20034;-72
2023/12/26 10:51:49;;;;;;;2.35;1.80;;;9.40;65.10;;;;;;5110548;27;20028;-73
2023/12/26 10:54:19;;;;;;;1.98;1.73;;;9.40;65.10;;;;;;5118410;27;20476;-76
2023/12/26 10:56:47;;;;;;;2.35;1.70;;;9.40;65.00;;;;;;5097253;28;20093;-75
2023/12/26 13:53:01;;;;;;;2.50;2.00;;;9.70;67.40;;;;;;5095228;28;20565;-74
2023/12/26 13:56:04;;;;;;;2.40;2.13;;;9.70;67.40;;;;;;5097812;28;20032;-79
2023/12/26 13:59:07;;;;;;;2.67;2.22;;;9.70;67.50;;;;;;5115740;28;20045;-75
2023/12/26 14:02:11;;;;;;;2.13;2.00;;;9.60;67.50;;;;;;5117103;27;20078;-74
2023/12/26 14:05:14;;;;;;;2.50;2.30;;;9.70;67.60;;;;;;5117418;27;20084;-75
2023/12/26 14:08:17;;;;;;;2.47;2.28;;;9.60;67.70;;;;;;5129543;27;20102;-75
2023/12/26 14:11:20;;;;;;;2.75;2.10;;;9.70;67.80;;;;;;5113478;28;20032;-75
2023/12/26 14:14:23;;;;;;;2.45;2.25;;;9.60;67.80;;;;;;5128313;27;20063;-74
2023/12/26 14:17:27;;;;;;;2.40;2.10;;;9.60;67.90;;;;;;5135522;27;20035;-75
2023/12/26 14:20:29;;;;;;;3.28;2.20;;;9.60;68.00;;;;;;5133693;27;20077;-76
2023/12/26 14:23:33;;;;;;;2.40;2.20;;;9.60;68.10;;;;;;5080154;27;20114;-76
2023/12/26 14:26:36;;;;;;;2.38;2.17;;;9.60;68.20;;;;;;5116550;27;20027;-75
2023/12/26 14:29:39;;;;;;;2.45;2.25;;;9.60;68.20;;;;;;5116630;27;20096;-75
2023/12/26 14:32:42;;;;;;;2.53;2.20;;;9.60;68.20;;;;;;5116675;27;20023;-75
2023/12/26 14:35:45;;;;;;;2.65;2.28;;;9.60;68.30;;;;;;5117962;27;20031;-74
2023/12/26 14:38:49;;;;;;;3.25;2.17;;;9.60;68.30;;;;;;5116804;27;20023;-74
2023/12/26 14:41:52;;;;;;;2.22;2.08;;;9.60;68.40;;;;;;5123928;27;20467;-77
2023/12/26 14:44:55;;;;;;;2.25;2.05;;;9.60;68.50;;;;;;5112480;28;20043;-75
2023/12/26 14:48:02;;;;;;;2.00;1.90;;;9.60;68.50;;;;;;5112972;28;20053;-75
2023/12/26 14:51:06;;;;;;;3.05;2.55;;;9.60;68.50;;;;;;5120075;27;20500;-74
2023/12/26 14:54:09;;;;;;;2.72;2.30;;;9.60;68.60;;;;;;5134961;27;20491;-76
2023/12/26 14:57:12;;;;;;;2.60;2.40;;;9.60;68.60;;;;;;5112988;28;20031;-75
2023/12/26 15:00:15;;;;;;;2.85;2.33;;;9.60;68.70;;;;;;5113836;28;20052;-78
2023/12/26 15:02:41;;;;;;;6.25;2.50;;;9.60;68.70;;;;;;5119725;27;20027;-78
2023/12/26 15:05:09;;;;;;;3.00;2.50;;;9.60;68.70;;;;;;5134350;27;20097;-78
2023/12/26 15:07:36;;;;;;;2.78;2.28;;;9.60;68.80;;;;;;5134347;27;20106;-75
2023/12/26 15:10:02;;;;;;;3.03;2.38;;;9.60;68.80;;;;;;5115571;28;20027;-75
2023/12/26 15:12:28;;;;;;;2.55;2.30;;;9.60;68.80;;;;;;5115608;28;20038;-75
2023/12/26 15:14:54;;;;;;;3.80;2.50;;;9.60;68.90;;;;;;5115154;28;20027;-76
2023/12/26 15:17:19;;;;;;;3.42;2.58;;;9.60;68.90;;;;;;5113213;28;20024;-77
2023/12/26 15:19:45;;;;;;;3.22;2.65;;;9.60;69.00;;;;;;5112679;28;20480;-76
2023/12/26 15:22:11;;;;;;;2.97;2.60;;;9.60;69.00;;;;;;5115117;28;20058;-77
2023/12/26 15:24:37;;;;;;;3.30;2.80;;;9.60;69.10;;;;;;5116118;27;20042;-77
2023/12/26 15:27:03;;;;;;;3.42;2.83;;;9.70;69.10;;;;;;5134246;28;20155;-75
2023/12/26 15:29:30;;;;;;;3.67;3.13;;;9.60;69.10;;;;;;5116239;28;20381;-77
2023/12/26 15:31:56;;;;;;;3.22;2.80;;;9.70;69.20;;;;;;5115941;28;20027;-75
2023/12/26 15:34:22;;;;;;;3.83;2.88;;;9.70;69.30;;;;;;5119531;28;20080;-76
2023/12/26 15:36:49;;;;;;;4.65;2.95;;;9.70;69.30;;;;;;5112292;28;20073;-77
2023/12/26 15:39:14;;;;;;;3.85;3.08;;;9.60;69.30;;;;;;5112126;28;20138;-74
2023/12/26 15:41:40;;;;;;;3.92;3.00;;;9.70;69.40;;;;;;5117061;27;20125;-74
2023/12/26 15:44:07;;;;;;;3.92;3.08;;;9.70;69.40;;;;;;5138526;27;20457;-74
2023/12/26 15:46:33;;;;;;;3.83;3.08;;;9.70;69.40;;;;;;5119905;27;20038;-75
2023/12/26 15:49:00;;;;;;;4.72;3.17;;;9.70;69.50;;;;;;5134019;27;20028;-74
2023/12/26 15:51:26;;;;;;;3.95;3.00;;;9.70;69.50;;;;;;5117603;27;20024;-76
2023/12/26 15:53:52;;;;;;;4.60;3.28;;;9.70;69.60;;;;;;5117990;27;20409;-75
2023/12/26 15:56:20;;;;;;;4.45;3.05;;;9.60;69.60;;;;;;5116471;28;20376;-76
2023/12/26 15:58:47;;;;;;;4.13;3.25;;;9.70;69.80;;;;;;5127646;27;20035;-76
2023/12/26 16:01:16;;;;;;;3.13;2.83;;;9.60;69.70;;;;;;5116349;28;20085;-75